Nord Copenhagen — 3FNV7 — position and weather

sailwx.info

Track history (hours):
 
Tides and Currents Weather Stations Pressure Air Temp Water Temp Dewpoint Dewpoint Depression Visibility Wind Speed Wind Dir Waves Ship Positions

Nord Copenhagen

Last reported at 2016-Aug-28 09:23 UTC. Time now 2016-Aug-28 16:38 UTC.
Position N 18°39' W 066°11'.

Length 177 m; draft 7.7 m.

Type: Cargo ship. MMSI: 373334000.

Date/timePositionNaut miles runAvg speedWind from/ knotsBaromVisibWave heightAir tempDewpointWater temp
2016-Aug-28 09:23N 18°39' W 066°11'3 0.4
2016-Aug-28 02:26N 18°37' W 066°13'3 0.2
2016-Aug-27 13:31N 18°36' W 066°10'3 0.2
2016-Aug-26 20:17N 18°34' W 066°13'3 0.8
2016-Aug-26 16:17N 18°37' W 066°12'6 0.3
2016-Aug-25 21:14N 18°32' W 066°09'1 1.3
2016-Aug-25 20:33N 18°32' W 066°10'  
2016-Aug-23 05:29N 18°35' W 066°10'9 9.7
2016-Aug-23 04:33N 18°27' W 066°07'1 1.0
2016-Aug-23 03:33N 18°26' W 066°07'0 0.0
2016-Aug-23 02:33N 18°26' W 066°07'0 0.0
2016-Aug-23 01:33N 18°26' W 066°07'0 0.0
2016-Aug-23 00:33N 18°26' W 066°07'0 0.0
2016-Aug-22 23:33N 18°26' W 066°07'0 0.0
2016-Aug-22 22:33N 18°26' W 066°07'0 0.0
2016-Aug-22 21:33N 18°26' W 066°07'0 0.0
2016-Aug-22 20:33N 18°26' W 066°07'0 0.0
2016-Aug-22 19:33N 18°26' W 066°07'0 0.0
2016-Aug-22 18:33N 18°26' W 066°07'0 0.0
2016-Aug-22 17:33N 18°26' W 066°07'0 0.0
2016-Aug-22 16:33N 18°26' W 066°07'0 0.0
2016-Aug-22 15:33N 18°26' W 066°07'0 0.0
2016-Aug-22 14:30N 18°26' W 066°07'0 0.0
2016-Aug-22 13:33N 18°26' W 066°07'0 0.0
2016-Aug-22 12:30N 18°26' W 066°07'0 0.0
2016-Aug-22 11:33N 18°26' W 066°07'0 0.0
2016-Aug-22 10:33N 18°26' W 066°07'0 0.0
2016-Aug-22 09:30N 18°26' W 066°07'0 0.0
2016-Aug-22 08:33N 18°26' W 066°07'0 0.0
2016-Aug-22 07:30N 18°26' W 066°07'0 0.0
2016-Aug-22 06:30N 18°26' W 066°07'0 0.0
2016-Aug-22 05:33N 18°26' W 066°07'0 0.0
2016-Aug-22 04:33N 18°26' W 066°07'0 0.0
2016-Aug-22 03:30N 18°26' W 066°07'0 0.0
2016-Aug-22 02:30N 18°26' W 066°07'0 0.0
2016-Aug-22 01:27N 18°26' W 066°07'0 0.0
2016-Aug-22 00:24N 18°26' W 066°07'0 0.0
2016-Aug-21 23:33N 18°26' W 066°07'0 0.0
2016-Aug-21 22:33N 18°26' W 066°07'0 0.0
2016-Aug-21 21:30N 18°26' W 066°07'0 0.0
2016-Aug-21 20:27N 18°26' W 066°07'0 0.0
2016-Aug-21 19:33N 18°26' W 066°07'0 0.0
2016-Aug-21 18:33N 18°26' W 066°07'0 0.0
2016-Aug-21 17:33N 18°26' W 066°07'0 0.0
2016-Aug-21 16:30N 18°26' W 066°07'0 0.0
2016-Aug-20 07:30N 18°26' W 066°07'0 0.0
2016-Aug-20 06:33N 18°26' W 066°07'0 0.0
2016-Aug-20 05:26N 18°26' W 066°07'0 0.0
2016-Aug-20 04:33N 18°26' W 066°07'0 0.0
2016-Aug-20 03:33N 18°26' W 066°07'0 0.0
2016-Aug-20 02:29N 18°26' W 066°07'0 0.0
2016-Aug-20 01:32N 18°26' W 066°07'0 0.0
2016-Aug-20 00:32N 18°26' W 066°07'0 0.0
2016-Aug-19 23:29N 18°26' W 066°07'0 0.0
2016-Aug-19 22:32N 18°26' W 066°07'0 0.0
2016-Aug-19 21:26N 18°26' W 066°07'0 0.0
2016-Aug-19 20:32N 18°26' W 066°07'0 0.0
2016-Aug-19 19:29N 18°26' W 066°07'0 0.0
2016-Aug-19 18:32N 18°26' W 066°07'0 0.0
2016-Aug-19 17:32N 18°26' W 066°07'2 2.5
2016-Aug-19 16:33N 18°28' W 066°08'9 8.0
2016-Aug-19 15:29N 18°37' W 066°09'  
Track history (hours):
 
Tides and Currents Weather Stations Pressure Air Temp Water Temp Dewpoint Dewpoint Depression Visibility Wind Speed Wind Dir Waves Ship Positions

Nord Copenhagen

Last reported at 2016-Aug-28 09:23 UTC. Time now 2016-Aug-28 16:38 UTC.
Position N 18°39' W 066°11'.

Length 177 m; draft 7.7 m.

Type: Cargo ship. MMSI: 373334000.

Date/timePositionNaut miles runAvg speedWind from/ knotsBaromVisibWave heightAir tempDewpointWater temp
2016-Aug-28 09:23N 18°39' W 066°11'3 0.4
2016-Aug-28 02:26N 18°37' W 066°13'3 0.2
2016-Aug-27 13:31N 18°36' W 066°10'3 0.2
2016-Aug-26 20:17N 18°34' W 066°13'3 0.8
2016-Aug-26 16:17N 18°37' W 066°12'6 0.3
2016-Aug-25 21:14N 18°32' W 066°09'1 1.3
2016-Aug-25 20:33N 18°32' W 066°10'  
2016-Aug-23 05:29N 18°35' W 066°10'9 9.7
2016-Aug-23 04:33N 18°27' W 066°07'1 1.0
2016-Aug-23 03:33N 18°26' W 066°07'0 0.0
2016-Aug-23 02:33N 18°26' W 066°07'0 0.0
2016-Aug-23 01:33N 18°26' W 066°07'0 0.0
2016-Aug-23 00:33N 18°26' W 066°07'0 0.0
2016-Aug-22 23:33N 18°26' W 066°07'0 0.0
2016-Aug-22 22:33N 18°26' W 066°07'0 0.0
2016-Aug-22 21:33N 18°26' W 066°07'0 0.0
2016-Aug-22 20:33N 18°26' W 066°07'0 0.0
2016-Aug-22 19:33N 18°26' W 066°07'0 0.0
2016-Aug-22 18:33N 18°26' W 066°07'0 0.0
2016-Aug-22 17:33N 18°26' W 066°07'0 0.0
2016-Aug-22 16:33N 18°26' W 066°07'0 0.0
2016-Aug-22 15:33N 18°26' W 066°07'0 0.0
2016-Aug-22 14:30N 18°26' W 066°07'0 0.0
2016-Aug-22 13:33N 18°26' W 066°07'0 0.0
2016-Aug-22 12:30N 18°26' W 066°07'0 0.0
2016-Aug-22 11:33N 18°26' W 066°07'0 0.0
2016-Aug-22 10:33N 18°26' W 066°07'0 0.0
2016-Aug-22 09:30N 18°26' W 066°07'0 0.0
2016-Aug-22 08:33N 18°26' W 066°07'0 0.0
2016-Aug-22 07:30N 18°26' W 066°07'0 0.0
2016-Aug-22 06:30N 18°26' W 066°07'0 0.0
2016-Aug-22 05:33N 18°26' W 066°07'0 0.0
2016-Aug-22 04:33N 18°26' W 066°07'0 0.0
2016-Aug-22 03:30N 18°26' W 066°07'0 0.0
2016-Aug-22 02:30N 18°26' W 066°07'0 0.0
2016-Aug-22 01:27N 18°26' W 066°07'0 0.0
2016-Aug-22 00:24N 18°26' W 066°07'0 0.0
2016-Aug-21 23:33N 18°26' W 066°07'0 0.0
2016-Aug-21 22:33N 18°26' W 066°07'0 0.0
2016-Aug-21 21:30N 18°26' W 066°07'0 0.0
2016-Aug-21 20:27N 18°26' W 066°07'0 0.0
2016-Aug-21 19:33N 18°26' W 066°07'0 0.0
2016-Aug-21 18:33N 18°26' W 066°07'0 0.0
2016-Aug-21 17:33N 18°26' W 066°07'0 0.0
2016-Aug-21 16:30N 18°26' W 066°07'0 0.0
2016-Aug-20 07:30N 18°26' W 066°07'0 0.0
2016-Aug-20 06:33N 18°26' W 066°07'0 0.0
2016-Aug-20 05:26N 18°26' W 066°07'0 0.0
2016-Aug-20 04:33N 18°26' W 066°07'0 0.0
2016-Aug-20 03:33N 18°26' W 066°07'0 0.0
2016-Aug-20 02:29N 18°26' W 066°07'0 0.0
2016-Aug-20 01:32N 18°26' W 066°07'0 0.0
2016-Aug-20 00:32N 18°26' W 066°07'0 0.0
2016-Aug-19 23:29N 18°26' W 066°07'0 0.0
2016-Aug-19 22:32N 18°26' W 066°07'0 0.0
2016-Aug-19 21:26N 18°26' W 066°07'0 0.0
2016-Aug-19 20:32N 18°26' W 066°07'0 0.0
2016-Aug-19 19:29N 18°26' W 066°07'0 0.0
2016-Aug-19 18:32N 18°26' W 066°07'0 0.0
2016-Aug-19 17:32N 18°26' W 066°07'2 2.5
2016-Aug-19 16:33N 18°28' W 066°08'9 8.0
2016-Aug-19 15:29N 18°37' W 066°09'  

Dump ship's entire track history